Time;durP1;ratioP1;P1;durP2;ratioP2;P2;SDS_P1;SDS_P2;PMS_P1;PMS_P2;Temp;Humidity;BMP_temperature;BMP_pressure;BME280_temperature;BME280_humidity;BME280_pressure;Samples;Min_cycle;Max_cycle;Signal;HPM_P1;HPM_P2
2021/09/11 00:02:10;;;;;;;12.27;2.72;;;15.30;77.90;;;;;;5030962;28;20030;-65
2021/09/11 00:04:38;;;;;;;6.38;2.63;;;15.30;78.00;;;;;;5029202;28;20041;-63
2021/09/11 00:07:04;;;;;;;14.13;3.88;;;15.30;78.10;;;;;;5030766;28;20053;-64
2021/09/11 00:09:31;;;;;;;9.23;2.90;;;15.30;78.30;;;;;;5028410;28;20033;-64
2021/09/11 00:11:57;;;;;;;12.57;2.72;;;15.30;78.30;;;;;;5027766;28;20539;-64
2021/09/11 00:14:24;;;;;;;13.88;4.30;;;15.30;78.40;;;;;;5027753;28;20049;-64
2021/09/11 00:16:50;;;;;;;8.77;2.45;;;15.30;78.50;;;;;;5029741;28;20436;-64
2021/09/11 00:19:17;;;;;;;10.57;2.95;;;15.30;78.50;;;;;;5029480;28;20016;-70
2021/09/11 00:21:43;;;;;;;7.68;2.00;;;15.30;78.40;;;;;;5029851;28;20028;-64
2021/09/11 00:24:09;;;;;;;7.85;3.35;;;15.20;78.40;;;;;;5030323;28;20064;-72
2021/09/11 00:26:36;;;;;;;8.88;3.03;;;15.20;78.50;;;;;;5026907;28;20053;-64
2021/09/11 00:29:02;;;;;;;10.00;4.10;;;15.20;78.60;;;;;;5029459;28;20009;-69
2021/09/11 00:31:29;;;;;;;9.20;2.45;;;15.20;78.60;;;;;;5025639;28;20025;-65
2021/09/11 00:33:56;;;;;;;8.32;2.42;;;15.20;78.60;;;;;;5034630;28;20025;-70
2021/09/11 00:36:22;;;;;;;5.88;3.05;;;15.20;78.60;;;;;;5031012;28;20395;-71
2021/09/11 00:38:49;;;;;;;6.10;2.75;;;15.20;78.70;;;;;;5031714;28;20053;-72
2021/09/11 00:41:15;;;;;;;10.88;3.90;;;15.20;78.70;;;;;;5025893;28;20026;-66
2021/09/11 00:43:49;;;;;;;9.90;2.40;;;15.20;78.70;;;;;;5030190;28;20045;-68
2021/09/11 00:46:17;;;;;;;9.75;2.53;;;15.20;78.70;;;;;;5031015;28;20063;-71
2021/09/11 00:48:44;;;;;;;6.35;2.60;;;15.20;78.60;;;;;;5031103;28;20014;-73
2021/09/11 00:51:13;;;;;;;9.82;2.90;;;15.10;78.50;;;;;;5030139;28;20025;-68
2021/09/11 00:53:40;;;;;;;8.68;2.70;;;15.10;78.50;;;;;;5034104;28;20056;-70
2021/09/11 00:56:07;;;;;;;9.82;2.70;;;15.10;78.60;;;;;;5031642;28;20041;-69
2021/09/11 00:58:34;;;;;;;8.80;3.80;;;15.10;78.80;;;;;;5027128;28;20495;-73
2021/09/11 01:01:00;;;;;;;8.40;2.58;;;15.10;78.80;;;;;;5029892;28;20083;-64
2021/09/11 01:03:27;;;;;;;13.98;3.22;;;15.00;78.70;;;;;;5033258;28;20064;-71
2021/09/11 01:05:53;;;;;;;8.88;3.30;;;15.10;78.90;;;;;;5029694;28;20030;-71
2021/09/11 01:08:20;;;;;;;18.77;4.53;;;15.00;78.90;;;;;;5029614;28;20024;-70
2021/09/11 01:10:46;;;;;;;7.25;2.05;;;15.00;79.00;;;;;;5031601;28;20116;-65
2021/09/11 01:13:13;;;;;;;9.80;2.28;;;15.00;79.00;;;;;;5030018;28;20034;-70
2021/09/11 01:15:41;;;;;;;7.93;2.08;;;15.00;79.10;;;;;;5034010;28;20044;-69
2021/09/11 01:18:09;;;;;;;13.10;2.00;;;15.00;79.10;;;;;;5033129;28;20013;-63
2021/09/11 01:20:37;;;;;;;9.65;2.00;;;14.90;79.00;;;;;;5030180;28;20064;-64
2021/09/11 01:23:04;;;;;;;14.48;2.50;;;15.00;79.10;;;;;;5032587;28;20037;-70
2021/09/11 01:25:31;;;;;;;11.75;2.85;;;14.90;79.00;;;;;;5029304;28;20026;-64
2021/09/11 01:27:58;;;;;;;8.18;2.45;;;14.90;79.00;;;;;;5030082;28;20044;-63
2021/09/11 01:30:25;;;;;;;8.95;2.28;;;14.90;79.20;;;;;;5030704;28;20029;-65
2021/09/11 01:32:52;;;;;;;10.85;3.35;;;14.90;79.20;;;;;;5031934;28;20029;-67
2021/09/11 01:35:18;;;;;;;12.05;2.72;;;14.90;79.30;;;;;;5029313;28;20025;-63
2021/09/11 01:37:45;;;;;;;5.28;2.53;;;14.90;79.40;;;;;;5028268;28;20025;-63
2021/09/11 01:40:12;;;;;;;11.73;2.88;;;14.90;79.40;;;;;;5030920;28;20096;-65
2021/09/11 01:42:39;;;;;;;8.25;2.80;;;14.90;79.50;;;;;;5033348;28;20025;-68
2021/09/11 01:45:12;;;;;;;7.22;2.55;;;14.80;79.40;;;;;;5026772;28;20116;-74
2021/09/11 01:47:39;;;;;;;5.70;2.08;;;14.90;79.50;;;;;;5029068;28;20029;-74
2021/09/11 01:50:08;;;;;;;5.38;1.95;;;14.80;79.60;;;;;;5031041;28;20094;-72
2021/09/11 01:52:34;;;;;;;7.38;2.85;;;14.80;79.70;;;;;;5024418;28;20061;-76
2021/09/11 01:55:01;;;;;;;10.77;2.88;;;14.80;79.60;;;;;;5027921;28;20384;-77
2021/09/11 01:57:28;;;;;;;8.15;2.30;;;14.80;79.90;;;;;;5031161;28;20038;-73
2021/09/11 01:59:54;;;;;;;16.02;2.47;;;14.80;80.00;;;;;;5031722;28;20938;-76
2021/09/11 02:02:21;;;;;;;15.38;3.33;;;14.80;80.20;;;;;;5032177;28;20396;-76
2021/09/11 02:04:47;;;;;;;9.13;2.25;;;14.80;80.20;;;;;;5031034;28;20036;-76
2021/09/11 02:07:13;;;;;;;7.57;1.98;;;14.80;80.20;;;;;;5031122;28;20368;-76
2021/09/11 02:09:40;;;;;;;10.07;3.55;;;14.80;80.20;;;;;;5027377;28;20096;-76
2021/09/11 02:12:07;;;;;;;10.45;2.20;;;14.90;80.20;;;;;;5032114;28;20637;-76
2021/09/11 02:14:33;;;;;;;9.15;2.75;;;14.90;80.30;;;;;;5027907;28;20022;-77
2021/09/11 02:17:03;;;;;;;8.50;3.00;;;14.90;80.20;;;;;;5028425;28;20036;-65
2021/09/11 02:19:31;;;;;;;8.13;2.83;;;14.90;80.30;;;;;;5031610;28;20025;-76
2021/09/11 02:21:57;;;;;;;5.30;2.38;;;14.90;80.50;;;;;;5024752;28;20033;-77
2021/09/11 02:24:24;;;;;;;6.38;3.20;;;14.90;80.30;;;;;;5029296;28;20033;-75
2021/09/11 02:26:50;;;;;;;79.00;60.55;;;14.90;80.50;;;;;;5027184;28;20029;-74
2021/09/11 02:29:17;;;;;;;64.82;47.45;;;14.90;80.80;;;;;;5030932;28;20033;-77
2021/09/11 02:31:43;;;;;;;18.50;7.72;;;15.00;80.90;;;;;;5029974;28;20025;-76
2021/09/11 02:34:10;;;;;;;7.95;2.95;;;15.00;80.70;;;;;;5025136;28;20113;-76
2021/09/11 02:36:36;;;;;;;11.38;2.20;;;15.00;80.50;;;;;;5026453;28;20025;-75
2021/09/11 02:39:03;;;;;;;6.22;2.00;;;15.00;80.60;;;;;;5027455;28;20021;-75
2021/09/11 02:41:29;;;;;;;7.85;2.42;;;15.00;80.50;;;;;;5028183;28;20021;-76
2021/09/11 02:43:56;;;;;;;6.72;1.55;;;15.00;80.60;;;;;;5026645;28;20469;-75
2021/09/11 02:46:22;;;;;;;7.13;2.33;;;15.00;80.70;;;;;;5027010;28;20120;-75
2021/09/11 02:48:49;;;;;;;13.27;4.40;;;15.00;80.80;;;;;;5026454;28;20396;-75
2021/09/11 02:51:15;;;;;;;8.70;2.38;;;15.00;81.00;;;;;;5026089;28;20442;-74
2021/09/11 02:53:42;;;;;;;5.00;1.92;;;15.00;80.90;;;;;;5029566;28;20052;-76
2021/09/11 02:56:08;;;;;;;10.70;2.30;;;15.00;80.60;;;;;;5023968;28;20059;-74
2021/09/11 02:58:35;;;;;;;6.40;2.42;;;15.00;80.80;;;;;;5028686;28;20103;-73
2021/09/11 03:01:01;;;;;;;6.85;1.92;;;15.00;80.90;;;;;;5026776;28;20048;-73
2021/09/11 03:03:28;;;;;;;6.97;2.20;;;15.00;81.00;;;;;;5026353;28;20037;-75
2021/09/11 03:05:54;;;;;;;10.07;2.65;;;14.90;80.90;;;;;;5025236;28;20017;-76
2021/09/11 03:08:21;;;;;;;11.00;3.40;;;15.00;80.90;;;;;;5026408;28;20049;-69
2021/09/11 03:10:48;;;;;;;7.25;1.95;;;15.00;81.10;;;;;;5030222;28;20017;-75
2021/09/11 03:13:14;;;;;;;13.13;3.22;;;15.00;80.90;;;;;;5025453;28;20428;-73
2021/09/11 03:15:41;;;;;;;7.90;2.60;;;15.00;81.00;;;;;;5025874;28;20412;-73
2021/09/11 03:18:07;;;;;;;8.40;3.03;;;15.00;81.00;;;;;;5022572;28;20014;-73
2021/09/11 03:20:34;;;;;;;12.05;2.50;;;15.00;81.10;;;;;;5027705;28;20026;-71
2021/09/11 03:23:00;;;;;;;5.85;2.22;;;15.00;81.00;;;;;;5029316;28;20522;-72
2021/09/11 03:25:27;;;;;;;7.35;2.33;;;15.00;81.10;;;;;;5024399;28;20380;-75
2021/09/11 03:27:54;;;;;;;8.93;2.63;;;15.00;81.10;;;;;;5027892;28;20032;-75
2021/09/11 03:30:21;;;;;;;5.20;2.33;;;15.00;81.30;;;;;;5030089;28;20018;-74
2021/09/11 03:32:47;;;;;;;34.70;25.00;;;15.00;81.30;;;;;;5030514;28;20053;-69
2021/09/11 03:35:14;;;;;;;14.98;10.20;;;15.00;81.40;;;;;;5025736;28;20052;-75
2021/09/11 03:37:40;;;;;;;7.95;2.35;;;15.00;81.30;;;;;;5029269;28;20395;-76
2021/09/11 03:40:08;;;;;;;9.93;2.47;;;15.00;81.20;;;;;;5027944;28;20022;-77
2021/09/11 03:42:34;;;;;;;8.38;2.30;;;14.90;81.20;;;;;;5026310;28;20025;-71
2021/09/11 03:45:01;;;;;;;7.68;2.88;;;15.00;81.20;;;;;;5029791;28;20099;-69
2021/09/11 03:47:27;;;;;;;8.43;2.30;;;14.90;81.20;;;;;;5024252;28;20425;-65
2021/09/11 03:49:54;;;;;;;8.35;2.33;;;14.90;81.20;;;;;;5028924;28;20028;-64
2021/09/11 03:52:20;;;;;;;7.20;2.00;;;14.90;81.30;;;;;;5027315;28;20037;-70
2021/09/11 03:54:47;;;;;;;9.98;2.97;;;14.90;81.30;;;;;;5028871;28;20029;-62
2021/09/11 03:57:13;;;;;;;6.78;2.33;;;14.90;81.40;;;;;;5026968;28;20072;-63
2021/09/11 03:59:40;;;;;;;47.33;30.98;;;14.90;81.50;;;;;;5030305;28;20392;-63
2021/09/11 04:02:06;;;;;;;63.75;43.95;;;14.80;81.50;;;;;;5027948;28;20495;-75
2021/09/11 04:04:33;;;;;;;20.75;10.65;;;14.80;81.60;;;;;;5029450;28;20132;-73
2021/09/11 04:06:59;;;;;;;7.75;2.60;;;14.90;81.60;;;;;;5028832;28;20021;-80
2021/09/11 04:09:25;;;;;;;11.20;2.65;;;14.90;81.50;;;;;;5033921;28;20131;-68
2021/09/11 04:11:52;;;;;;;6.57;2.60;;;14.90;81.40;;;;;;5030650;28;20025;-63
2021/09/11 04:14:18;;;;;;;7.50;2.25;;;14.90;81.60;;;;;;5031581;28;20025;-75
2021/09/11 04:16:45;;;;;;;8.88;2.97;;;14.90;81.40;;;;;;5029966;28;20104;-72
2021/09/11 04:19:11;;;;;;;5.35;1.52;;;14.80;81.50;;;;;;5033968;28;20017;-64
2021/09/11 04:21:38;;;;;;;7.00;2.00;;;14.80;81.50;;;;;;5032854;28;20029;-62
2021/09/11 04:24:06;;;;;;;11.10;2.40;;;14.90;81.80;;;;;;5031784;28;20488;-84
2021/09/11 04:26:35;;;;;;;5.93;1.58;;;14.90;81.80;;;;;;5028884;28;20481;-63
2021/09/11 04:29:05;;;;;;;6.82;2.58;;;14.90;81.90;;;;;;5034561;28;20028;-63
2021/09/11 04:31:32;;;;;;;10.43;1.95;;;14.80;81.70;;;;;;5029844;28;20517;-88
2021/09/11 04:33:59;;;;;;;4.38;1.40;;;14.90;81.60;;;;;;5028777;28;20045;-85
2021/09/11 04:36:25;;;;;;;7.93;3.28;;;14.80;81.50;;;;;;5029503;28;20028;-65
2021/09/11 04:38:52;;;;;;;5.43;1.80;;;14.80;81.60;;;;;;5032513;28;20030;-63
2021/09/11 04:41:19;;;;;;;6.65;3.00;;;14.80;81.80;;;;;;5034142;28;20017;-83
2021/09/11 04:43:45;;;;;;;8.93;2.13;;;14.70;81.90;;;;;;5029072;28;20073;-75
2021/09/11 04:46:11;;;;;;;9.40;2.30;;;14.70;81.90;;;;;;5030917;28;20040;-63
2021/09/11 04:48:38;;;;;;;6.80;1.83;;;14.70;82.00;;;;;;5028375;28;20029;-74
2021/09/11 04:51:04;;;;;;;8.13;1.65;;;14.70;82.10;;;;;;5032418;28;20096;-67
2021/09/11 04:53:31;;;;;;;7.90;2.95;;;14.60;82.10;;;;;;5027639;28;20507;-69
2021/09/11 04:55:57;;;;;;;5.53;2.53;;;14.60;82.40;;;;;;5048118;28;20065;-66
2021/09/11 04:58:24;;;;;;;15.23;3.10;;;14.60;82.70;;;;;;5031594;28;20044;-68
2021/09/11 05:00:50;;;;;;;9.77;3.47;;;14.60;82.80;;;;;;5029221;28;20510;-64
2021/09/11 05:03:17;;;;;;;10.88;3.08;;;14.70;82.90;;;;;;5027040;28;20036;-66
2021/09/11 05:05:43;;;;;;;8.15;2.50;;;14.70;82.80;;;;;;5026070;28;20026;-71
2021/09/11 05:08:11;;;;;;;31.80;17.95;;;14.70;82.70;;;;;;5025740;28;20022;-68
2021/09/11 05:10:38;;;;;;;61.28;36.90;;;14.70;83.10;;;;;;5026156;28;20048;-64
2021/09/11 05:13:04;;;;;;;20.13;7.88;;;14.70;83.00;;;;;;5025385;28;20054;-75
2021/09/11 05:15:31;;;;;;;7.82;3.03;;;14.70;82.90;;;;;;5026334;28;20041;-66
2021/09/11 05:17:57;;;;;;;7.82;1.80;;;14.70;82.90;;;;;;5025310;28;21555;-73
2021/09/11 05:20:24;;;;;;;11.00;2.42;;;14.80;82.90;;;;;;5028863;28;20021;-64
2021/09/11 05:22:50;;;;;;;8.88;2.55;;;14.80;82.80;;;;;;5024463;28;20025;-76
2021/09/11 05:25:17;;;;;;;6.72;2.53;;;14.80;82.70;;;;;;5028021;28;20026;-75
2021/09/11 05:27:43;;;;;;;8.85;2.88;;;14.80;82.70;;;;;;5023962;28;20072;-77
2021/09/11 05:30:10;;;;;;;8.35;3.28;;;14.80;82.50;;;;;;5027628;28;20037;-67
2021/09/11 05:32:37;;;;;;;7.20;2.38;;;14.80;82.70;;;;;;5024409;28;20026;-71
2021/09/11 05:35:04;;;;;;;9.27;2.40;;;14.70;82.50;;;;;;5024686;28;20013;-67
2021/09/11 05:37:31;;;;;;;5.53;2.15;;;14.70;82.70;;;;;;5025269;28;20022;-72
2021/09/11 05:39:57;;;;;;;8.52;2.63;;;14.70;82.80;;;;;;5027147;28;20027;-66
2021/09/11 05:42:24;;;;;;;8.43;2.30;;;14.80;83.00;;;;;;5027723;28;20030;-65
2021/09/11 05:44:50;;;;;;;8.43;2.75;;;14.80;82.80;;;;;;5029083;28;20038;-63
2021/09/11 05:47:17;;;;;;;8.48;2.05;;;14.80;82.80;;;;;;5027801;28;20024;-75
2021/09/11 05:49:43;;;;;;;7.28;2.50;;;14.80;82.80;;;;;;5032694;28;20468;-73
2021/09/11 05:52:10;;;;;;;7.65;2.33;;;14.80;82.70;;;;;;5028234;28;20017;-64
2021/09/11 05:54:36;;;;;;;3.33;1.58;;;14.80;82.80;;;;;;5031563;28;20044;-66
2021/09/11 05:57:03;;;;;;;6.05;2.47;;;14.80;82.90;;;;;;5028336;28;20073;-69
2021/09/11 05:59:29;;;;;;;10.63;2.10;;;14.80;83.00;;;;;;5029831;28;20025;-74
2021/09/11 06:01:56;;;;;;;10.43;2.20;;;14.90;83.00;;;;;;5028239;28;20028;-74
2021/09/11 06:04:22;;;;;;;7.18;2.10;;;14.90;83.00;;;;;;5028533;28;20076;-67
2021/09/11 06:06:49;;;;;;;10.00;2.30;;;14.90;83.00;;;;;;5028699;28;20108;-68
2021/09/11 06:09:16;;;;;;;10.25;2.38;;;15.00;82.90;;;;;;5024348;28;20385;-68
2021/09/11 06:11:42;;;;;;;13.73;3.10;;;15.00;82.80;;;;;;5029183;28;20038;-66
2021/09/11 06:14:09;;;;;;;6.53;2.20;;;15.00;82.80;;;;;;5030190;28;20022;-70
2021/09/11 06:16:35;;;;;;;5.90;2.00;;;15.10;82.70;;;;;;5029118;28;20064;-64
2021/09/11 06:19:02;;;;;;;7.63;2.65;;;15.10;82.40;;;;;;5028549;28;20017;-72
2021/09/11 06:21:28;;;;;;;11.95;2.97;;;15.00;82.30;;;;;;5024355;28;20022;-72
2021/09/11 06:23:55;;;;;;;11.63;2.60;;;15.00;82.60;;;;;;5026988;28;20105;-65
2021/09/11 06:26:21;;;;;;;8.85;2.05;;;15.10;82.70;;;;;;5026655;28;20022;-65
2021/09/11 06:28:48;;;;;;;9.70;2.03;;;15.10;82.60;;;;;;5024425;28;20067;-66
2021/09/11 06:31:14;;;;;;;4.72;1.90;;;15.20;82.30;;;;;;5027950;28;20021;-73
2021/09/11 06:33:41;;;;;;;22.15;4.05;;;15.20;82.20;;;;;;5026662;28;20021;-64
2021/09/11 06:36:11;;;;;;;82.82;10.77;;;15.20;82.40;;;;;;5029479;28;20104;-63
2021/09/11 06:38:38;;;;;;;49.13;9.73;;;15.30;82.40;;;;;;5028239;28;20033;-66
2021/09/11 06:41:06;;;;;;;55.08;7.32;;;15.30;82.40;;;;;;5030663;28;20033;-65
2021/09/11 06:43:33;;;;;;;63.17;44.22;;;15.40;82.30;;;;;;5028648;28;20044;-64
2021/09/11 06:45:59;;;;;;;24.67;16.77;;;15.50;81.50;;;;;;5029506;28;20014;-70
2021/09/11 06:48:26;;;;;;;20.05;11.95;;;15.50;80.90;;;;;;5031894;28;20139;-62
2021/09/11 06:51:12;;;;;;;19.42;8.32;;;15.50;81.00;;;;;;5030332;28;20014;-62
2021/09/11 06:53:39;;;;;;;11.93;6.47;;;15.60;80.80;;;;;;5025131;28;20025;-63
2021/09/11 06:56:05;;;;;;;13.27;5.72;;;15.70;80.70;;;;;;5023365;28;20038;-65
2021/09/11 06:58:32;;;;;;;10.25;4.43;;;15.80;80.40;;;;;;5022457;28;20018;-68
2021/09/11 07:00:59;;;;;;;9.57;4.28;;;15.80;80.00;;;;;;5027987;28;20046;-71
2021/09/11 07:03:26;;;;;;;8.52;4.05;;;15.90;79.70;;;;;;5035931;28;20119;-72
2021/09/11 07:05:52;;;;;;;10.10;3.85;;;15.90;79.40;;;;;;5028511;28;20033;-73
2021/09/11 07:08:18;;;;;;;11.65;2.95;;;16.00;79.30;;;;;;5023953;28;20021;-74
2021/09/11 07:10:45;;;;;;;4.25;2.05;;;16.10;79.20;;;;;;5030219;28;20114;-64
2021/09/11 07:13:11;;;;;;;8.13;2.20;;;16.10;79.40;;;;;;5033385;28;20031;-62
2021/09/11 07:15:39;;;;;;;8.73;3.10;;;16.20;79.40;;;;;;5032655;28;20072;-72
2021/09/11 07:18:06;;;;;;;6.30;2.30;;;16.20;79.20;;;;;;5034887;28;20083;-63
2021/09/11 07:20:32;;;;;;;18.13;9.95;;;16.30;79.60;;;;;;5029788;28;20040;-74
2021/09/11 07:22:59;;;;;;;21.30;12.35;;;16.30;78.80;;;;;;5028209;28;20025;-62
2021/09/11 07:25:25;;;;;;;18.20;10.90;;;16.40;79.30;;;;;;5027777;28;20024;-70
2021/09/11 07:27:52;;;;;;;11.95;7.70;;;16.40;78.50;;;;;;5028065;28;20392;-69
2021/09/11 07:30:19;;;;;;;13.88;7.75;;;16.50;78.30;;;;;;5028297;28;20018;-72
2021/09/11 07:32:45;;;;;;;13.02;6.25;;;16.50;78.10;;;;;;5028263;28;20025;-69
2021/09/11 07:35:12;;;;;;;8.70;5.10;;;16.50;77.90;;;;;;5027462;28;20024;-74
2021/09/11 07:37:38;;;;;;;8.95;4.05;;;16.60;77.80;;;;;;5029312;28;20029;-65
2021/09/11 07:40:06;;;;;;;8.82;3.10;;;16.60;77.60;;;;;;5031665;28;20029;-63
2021/09/11 07:42:32;;;;;;;9.68;4.15;;;16.60;77.50;;;;;;5027740;28;20117;-77
2021/09/11 07:44:58;;;;;;;10.45;6.10;;;16.70;77.30;;;;;;5032923;28;20431;-82
2021/09/11 07:47:25;;;;;;;7.78;4.75;;;16.70;77.20;;;;;;5027536;28;20376;-65
2021/09/11 07:49:51;;;;;;;6.88;3.42;;;16.70;77.00;;;;;;5031513;28;20065;-65
2021/09/11 07:52:18;;;;;;;7.07;3.20;;;16.80;77.00;;;;;;5030615;28;20033;-65
2021/09/11 07:54:44;;;;;;;6.88;2.70;;;16.80;76.90;;;;;;5030810;28;20104;-65
2021/09/11 07:57:11;;;;;;;6.15;2.42;;;16.80;76.80;;;;;;5029778;28;20041;-71
2021/09/11 07:59:37;;;;;;;9.15;3.58;;;16.80;76.70;;;;;;5030806;28;20029;-69
2021/09/11 08:02:04;;;;;;;10.80;4.07;;;16.80;77.20;;;;;;5031386;28;21199;-75
2021/09/11 08:04:30;;;;;;;7.90;3.08;;;16.80;76.50;;;;;;5031362;28;20030;-73
2021/09/11 08:06:57;;;;;;;8.15;2.53;;;16.80;76.40;;;;;;5031904;28;20029;-70
2021/09/11 08:09:24;;;;;;;6.80;3.15;;;16.90;76.30;;;;;;5032330;28;20358;-70
2021/09/11 08:11:50;;;;;;;8.10;3.60;;;16.90;76.30;;;;;;5033883;28;20499;-72
2021/09/11 08:14:16;;;;;;;8.43;2.92;;;16.90;76.20;;;;;;5030654;28;20650;-71
2021/09/11 08:16:43;;;;;;;21.08;7.90;;;16.90;76.10;;;;;;5028348;28;20489;-76
2021/09/11 08:19:09;;;;;;;13.73;10.25;;;17.00;76.00;;;;;;5032324;28;20021;-70
2021/09/11 08:22:15;;;;;;;16.02;9.98;;;17.00;76.00;;;;;;5031336;28;20058;-76
2021/09/11 08:25:21;;;;;;;13.50;7.78;;;17.00;75.90;;;;;;5030668;28;20168;-73
2021/09/11 08:27:48;;;;;;;9.52;4.78;;;17.00;75.80;;;;;;5034860;28;20018;-73
2021/09/11 08:30:14;;;;;;;7.35;4.25;;;17.10;75.70;;;;;;5032721;28;20056;-74
2021/09/11 08:32:41;;;;;;;9.88;4.15;;;17.10;75.70;;;;;;5031863;28;20021;-75
2021/09/11 08:35:08;;;;;;;8.23;3.40;;;17.10;75.70;;;;;;5033023;28;20074;-67
2021/09/11 08:37:35;;;;;;;6.32;3.33;;;17.20;75.70;;;;;;5029465;28;20018;-74
2021/09/11 08:40:01;;;;;;;6.57;4.43;;;17.20;75.60;;;;;;5031902;28;20032;-73
2021/09/11 08:42:28;;;;;;;12.63;5.20;;;17.20;75.60;;;;;;5029411;28;20018;-72
2021/09/11 08:44:54;;;;;;;11.88;6.05;;;17.20;75.50;;;;;;5034307;28;20044;-72
2021/09/11 08:47:21;;;;;;;10.35;5.30;;;17.30;75.60;;;;;;5029936;28;20425;-72
2021/09/11 08:49:47;;;;;;;9.73;2.63;;;17.20;75.50;;;;;;5028864;28;20070;-71
2021/09/11 08:52:14;;;;;;;9.95;2.63;;;17.20;75.50;;;;;;5032013;28;20026;-72
2021/09/11 08:54:40;;;;;;;7.82;3.17;;;17.30;75.40;;;;;;5028371;28;20017;-73
2021/09/11 08:57:23;;;;;;;6.68;2.63;;;17.20;75.40;;;;;;5030457;28;20080;-71
2021/09/11 08:59:50;;;;;;;7.43;2.95;;;17.30;76.00;;;;;;5030638;28;20480;-73
2021/09/11 09:02:20;;;;;;;7.05;2.75;;;17.30;75.30;;;;;;5031529;28;20037;-71
2021/09/11 09:04:53;;;;;;;7.30;2.78;;;17.30;75.10;;;;;;5030853;28;20489;-78
2021/09/11 09:07:35;;;;;;;10.48;2.63;;;17.30;74.80;;;;;;5027712;28;20026;-72
2021/09/11 09:10:13;;;;;;;8.70;2.40;;;17.30;74.70;;;;;;5027141;28;20065;-70
2021/09/11 09:12:43;;;;;;;11.48;3.75;;;17.30;74.60;;;;;;5024941;28;20025;-70
2021/09/11 09:15:15;;;;;;;6.63;1.77;;;17.30;74.60;;;;;;5028969;28;20096;-69
2021/09/11 09:17:48;;;;;;;9.65;3.03;;;17.40;74.60;;;;;;5032211;28;20048;-70
2021/09/11 09:20:30;;;;;;;10.77;3.00;;;17.40;74.50;;;;;;5029207;28;20025;-70
2021/09/11 09:22:59;;;;;;;9.55;2.95;;;17.50;74.40;;;;;;5031951;28;20357;-74
2021/09/11 09:25:34;;;;;;;7.10;2.13;;;17.50;74.40;;;;;;5033132;28;20026;-69
2021/09/11 09:28:02;;;;;;;;;;;17.60;74.20;;;;;;5030491;28;20021;-66
2021/09/11 09:30:41;;;;;;;4.80;2.08;;;17.70;74.10;;;;;;5028103;28;19913;-68
2021/09/11 09:33:17;;;;;;;7.00;2.38;;;17.80;73.80;;;;;;5046212;28;20021;-67
2021/09/11 09:35:43;;;;;;;4.57;2.08;;;17.90;73.50;;;;;;5027322;28;20021;-66
2021/09/11 09:38:11;;;;;;;12.35;2.97;;;17.90;73.10;;;;;;5029239;28;20028;-67
2021/09/11 09:40:46;;;;;;;10.77;2.92;;;18.00;72.90;;;;;;5031047;28;20029;-69
2021/09/11 09:43:42;;;;;;;12.63;2.22;;;18.10;72.70;;;;;;5028925;28;20039;-71
2021/09/11 09:46:11;;;;;;;18.67;2.97;;;18.10;72.30;;;;;;5026977;28;20068;-70
2021/09/11 09:48:39;;;;;;;7.65;3.10;;;18.20;72.10;;;;;;5029326;28;20113;-71
2021/09/11 09:51:11;;;;;;;6.32;2.35;;;18.30;71.80;;;;;;5024594;28;20735;-71
2021/09/11 09:53:40;;;;;;;10.32;2.75;;;18.30;71.60;;;;;;5027710;28;20388;-69
2021/09/11 09:56:07;;;;;;;7.50;2.33;;;18.40;71.50;;;;;;5024794;28;20096;-72
2021/09/11 09:59:13;;;;;;;9.98;2.08;;;18.50;71.40;;;;;;5185838;22;20108;-72
2021/09/11 10:02:19;;;;;;;9.07;2.00;;;18.50;71.20;;;;;;5043111;28;20545;-68
2021/09/11 10:05:25;;;;;;;10.38;2.05;;;18.60;70.90;;;;;;5042079;28;20052;-69
2021/09/11 10:08:47;;;;;;;7.80;2.20;;;18.80;71.40;;;;;;5033312;28;20079;-69
2021/09/11 10:12:18;;;;;;;4.85;1.67;;;18.80;70.40;;;;;;5039889;28;20049;-70
2021/09/11 10:15:27;;;;;;;8.25;1.90;;;18.90;70.20;;;;;;5045314;28;20029;-69
2021/09/11 10:18:34;;;;;;;7.22;2.35;;;19.00;69.80;;;;;;5045089;28;20036;-74
2021/09/11 10:21:50;;;;;;;6.63;2.50;;;19.10;69.70;;;;;;5042199;28;20476;-72
2021/09/11 10:24:39;;;;;;;11.88;2.33;;;19.20;69.40;;;;;;5041659;28;20043;-73
2021/09/11 10:27:45;;;;;;;12.35;3.67;;;19.20;69.20;;;;;;5047291;28;20016;-67
2021/09/11 10:30:54;;;;;;;10.52;2.65;;;19.30;69.10;;;;;;5046031;28;20455;-70
2021/09/11 10:33:40;;;;;;;7.53;2.13;;;19.40;69.00;;;;;;5042709;28;20037;-73
2021/09/11 10:36:52;;;;;;;11.13;3.55;;;19.40;68.90;;;;;;5031577;28;20044;-73
2021/09/11 10:39:58;;;;;;;6.75;2.05;;;19.40;68.80;;;;;;5045431;28;20029;-74
2021/09/11 10:43:06;;;;;;;8.68;2.03;;;19.50;68.80;;;;;;5036777;28;20380;-65
2021/09/11 10:46:21;;;;;;;12.23;2.75;;;19.50;68.70;;;;;;5047190;28;20029;-63
2021/09/11 10:49:27;;;;;;;9.32;2.20;;;19.60;68.60;;;;;;5045497;28;20385;-72
2021/09/11 10:52:12;;;;;;;12.13;2.75;;;19.60;68.40;;;;;;5045889;28;20013;-66
2021/09/11 10:54:41;;;;;;;10.68;2.97;;;19.70;68.30;;;;;;5042617;28;20065;-71
2021/09/11 10:57:36;;;;;;;9.93;2.88;;;19.80;68.20;;;;;;5042606;28;20055;-69
2021/09/11 11:00:42;;;;;;;11.40;3.47;;;19.80;68.10;;;;;;5045520;28;20105;-63
2021/09/11 11:03:35;;;;;;;9.43;2.65;;;19.90;68.10;;;;;;5033828;28;20290;-67
2021/09/11 11:06:41;;;;;;;9.52;4.72;;;19.90;67.90;;;;;;5038469;28;20035;-62
2021/09/11 11:09:47;;;;;;;12.95;4.20;;;20.00;67.90;;;;;;5045623;28;20013;-63
2021/09/11 11:12:55;;;;;;;5.20;2.83;;;20.10;67.60;;;;;;5038242;28;20036;-62
2021/09/11 11:16:04;;;;;;;9.38;3.33;;;20.20;67.40;;;;;;5041640;28;20065;-68
2021/09/11 11:19:10;;;;;;;15.05;3.92;;;20.20;67.50;;;;;;5040833;28;20036;-66
2021/09/11 11:21:37;;;;;;;11.30;3.53;;;20.30;67.20;;;;;;5039864;28;20034;-62
2021/09/11 11:24:43;;;;;;;15.05;3.85;;;20.40;67.00;;;;;;5043719;28;20052;-67
2021/09/11 11:27:52;;;;;;;7.00;2.88;;;20.40;66.90;;;;;;5046424;28;20028;-60
2021/09/11 11:30:58;;;;;;;7.50;2.75;;;20.40;67.00;;;;;;5036235;28;20059;-66
2021/09/11 11:34:05;;;;;;;8.60;2.53;;;20.50;66.80;;;;;;5033170;28;20030;-62
2021/09/11 11:37:11;;;;;;;10.68;3.55;;;20.60;66.50;;;;;;5031404;28;20048;-64
2021/09/11 11:40:20;;;;;;;15.23;3.33;;;20.60;66.20;;;;;;5034582;28;20025;-68
2021/09/11 11:43:26;;;;;;;13.68;4.75;;;20.60;66.10;;;;;;5034272;28;20068;-67
2021/09/11 11:46:32;;;;;;;14.18;4.40;;;20.70;66.10;;;;;;5029138;28;20036;-73
2021/09/11 11:49:38;;;;;;;10.15;3.15;;;20.70;65.90;;;;;;5033850;28;20037;-70
2021/09/11 11:52:44;;;;;;;9.48;2.42;;;20.80;65.80;;;;;;5032677;28;21055;-71
2021/09/11 11:55:52;;;;;;;5.50;2.25;;;20.80;65.60;;;;;;5034397;28;20587;-65
2021/09/11 11:59:01;;;;;;;9.65;2.60;;;20.90;65.50;;;;;;5034486;28;20045;-64
2021/09/11 12:02:10;;;;;;;12.00;3.65;;;20.90;65.30;;;;;;5037585;28;20064;-63
2021/09/11 12:05:16;;;;;;;10.00;2.20;;;21.00;65.30;;;;;;5043328;28;20037;-74
2021/09/11 12:08:22;;;;;;;9.30;2.40;;;21.00;65.00;;;;;;5038107;28;20057;-71
2021/09/11 12:11:34;;;;;;;5.25;2.25;;;21.10;64.90;;;;;;5040398;28;20549;-68
2021/09/11 12:14:40;;;;;;;8.93;2.67;;;21.10;64.90;;;;;;5042001;28;20369;-67
2021/09/11 12:17:46;;;;;;;10.73;2.72;;;21.10;64.70;;;;;;5039776;28;20108;-64
2021/09/11 12:21:01;;;;;;;10.40;3.30;;;21.20;64.70;;;;;;5036555;28;20029;-66
2021/09/11 12:23:28;;;;;;;9.70;2.63;;;21.20;64.60;;;;;;5034242;28;20053;-64
2021/09/11 12:26:36;;;;;;;11.43;2.47;;;21.20;64.70;;;;;;5045384;28;20025;-68
2021/09/11 12:29:18;;;;;;;11.70;3.10;;;21.10;64.90;;;;;;5045733;28;20040;-74
2021/09/11 12:32:05;;;;;;;8.02;2.65;;;21.10;65.10;;;;;;5044412;28;20086;-75
2021/09/11 12:34:42;;;;;;;9.40;2.22;;;21.00;64.90;;;;;;5032290;28;20056;-62
2021/09/11 12:37:10;;;;;;;5.80;2.63;;;21.00;65.00;;;;;;5038170;28;20021;-63
2021/09/11 12:39:54;;;;;;;7.32;3.28;;;21.00;64.90;;;;;;5035803;28;20037;-63
2021/09/11 12:42:21;;;;;;;9.40;3.85;;;21.00;65.10;;;;;;5038292;28;20065;-72
2021/09/11 12:44:47;;;;;;;9.63;3.00;;;20.90;65.20;;;;;;5041502;28;20049;-65
2021/09/11 12:47:14;;;;;;;10.35;3.33;;;20.80;65.20;;;;;;5040264;28;20116;-72
2021/09/11 12:49:42;;;;;;;8.80;2.13;;;20.80;65.40;;;;;;5045358;28;20017;-62
2021/09/11 12:52:09;;;;;;;8.82;2.10;;;20.80;65.40;;;;;;5043153;28;20043;-70
2021/09/11 12:55:15;;;;;;;10.65;2.10;;;20.80;65.20;;;;;;5049255;28;20055;-69
2021/09/11 12:58:19;;;;;;;11.57;2.60;;;20.70;65.10;;;;;;5042218;28;20023;-75
2021/09/11 13:01:26;;;;;;;8.20;4.15;;;20.70;65.60;;;;;;5047474;28;20095;-63
2021/09/11 13:04:32;;;;;;;10.82;3.05;;;20.70;65.90;;;;;;5050407;28;20051;-64
2021/09/11 13:07:38;;;;;;;6.88;2.10;;;20.70;66.20;;;;;;5048341;28;20116;-66
2021/09/11 13:10:44;;;;;;;8.02;2.20;;;20.70;66.40;;;;;;5051268;28;20071;-68
2021/09/11 13:13:50;;;;;;;6.97;2.03;;;20.70;66.60;;;;;;5050752;28;20032;-61
2021/09/11 13:16:56;;;;;;;6.05;1.80;;;20.70;66.70;;;;;;5041717;28;20430;-69
2021/09/11 13:20:03;;;;;;;7.72;2.20;;;20.70;66.80;;;;;;5043882;28;20472;-71
2021/09/11 13:23:09;;;;;;;4.72;1.95;;;20.70;66.90;;;;;;5044906;28;20028;-66